Kakushu Maru — JG5688 — position and weather

sailwx.info

Track history (hours):
 
Tides and Currents Weather Stations Pressure Air Temp Water Temp Dewpoint Dewpoint Depression Visibility Wind Speed Wind Dir Waves Ship Positions

Kakushu Maru

Last reported at 2015-Feb-10 03:33 UTC. Time now 2015-Mar-02 07:25 UTC.
Position N 34°37' E 134°58'.
Warning: this ship's position is 20 days out of date.

Length 105 m; draft 4.8 m.

Type: Tanker. MMSI: 431101016.

Date/timePositionNaut miles runAvg speedWind from/ knotsBaromVisibWave heightAir tempDewpointWater temp
2015-Feb-10 03:33N 34°37' E 134°58'1110.7
2015-Feb-10 02:33N 34°27' E 135°03'1514.7
2015-Feb-10 01:33N 34°13' E 134°59'1414.2
2015-Feb-10 00:33N 33°59' E 134°60'1 0.0
2015-Feb-08 01:30N 33°60' E 134°58'1313.5
2015-Feb-08 00:33N 34°12' E 134°58'1312.5
2015-Feb-07 23:33N 34°25' E 135°01'1211.7
2015-Feb-07 22:33N 34°36' E 135°02'1413.6
2015-Feb-07 21:33N 34°32' E 134°46'  
2015-Feb-04 08:20N 34°35' E 134°53'911.9
2015-Feb-04 07:33N 34°36' E 135°04'1413.6
2015-Feb-04 06:33N 34°34' E 135°20'3 0.4
2015-Feb-03 22:33N 34°33' E 135°24'4 4.2
2015-Feb-03 21:33N 34°32' E 135°19'0 0.0
2015-Feb-03 20:33N 34°32' E 135°19'0 0.0
2015-Feb-03 19:27N 34°32' E 135°19'0 0.0
2015-Feb-03 18:33N 34°32' E 135°19'0 0.0
2015-Feb-03 17:33N 34°32' E 135°19'0 0.0
2015-Feb-03 16:33N 34°32' E 135°19'0 0.0
2015-Feb-03 15:33N 34°32' E 135°19'0 0.0
2015-Feb-03 14:33N 34°32' E 135°19'0 0.0
2015-Feb-03 13:33N 34°32' E 135°19'0 0.0
2015-Feb-03 12:33N 34°32' E 135°19'0 0.0
2015-Feb-03 11:33N 34°32' E 135°19'0 0.0
2015-Feb-03 10:27N 34°32' E 135°19'0 0.0
2015-Feb-03 09:21N 34°32' E 135°19'0 0.0
2015-Feb-03 08:33N 34°32' E 135°19'0 0.0
2015-Feb-03 07:33N 34°32' E 135°19'0 0.1
2015-Feb-03 06:27N 34°32' E 135°19'0 0.0
2015-Feb-03 05:33N 34°32' E 135°19'0 0.0
2015-Feb-03 04:27N 34°32' E 135°19'0 0.0
2015-Feb-03 03:33N 34°32' E 135°19'0 0.0
2015-Feb-03 02:33N 34°32' E 135°19'0 0.0
2015-Feb-03 01:27N 34°32' E 135°19'0 0.0
2015-Feb-03 00:33N 34°32' E 135°19'25 0.8
2015-Feb-01 16:24N 34°34' E 134°48'1011.8
2015-Feb-01 15:32N 34°38' E 134°60'9 9.7
2015-Feb-01 14:33N 34°29' E 135°03'1313.1
2015-Feb-01 13:33N 34°16' E 134°60'1212.4
2015-Feb-01 12:33N 34°09' E 135°12'1 0.1
2015-Feb-01 02:33N 34°09' E 135°10'1 1.3
2015-Feb-01 01:31N 34°10' E 135°09'0 0.0
2015-Feb-01 00:31N 34°10' E 135°09'0 0.0
2015-Jan-31 23:31N 34°10' E 135°09'0 0.0
2015-Jan-31 22:31N 34°10' E 135°09'0 0.0
2015-Jan-31 21:31N 34°10' E 135°09'0 0.0
2015-Jan-31 20:31N 34°10' E 135°09'0 0.0
2015-Jan-31 19:28N 34°10' E 135°09'0 0.0
2015-Jan-31 18:31N 34°10' E 135°09'0 0.0
2015-Jan-31 17:31N 34°10' E 135°09'0 0.1
2015-Jan-31 16:31N 34°10' E 135°09'5 5.7
2015-Jan-31 15:34N 34°12' E 135°03'1413.6
2015-Jan-31 14:33N 34°26' E 135°01'1111.0
2015-Jan-31 13:33N 34°36' E 134°57'  
Track history (hours):
 
Tides and Currents Weather Stations Pressure Air Temp Water Temp Dewpoint Dewpoint Depression Visibility Wind Speed Wind Dir Waves Ship Positions

Kakushu Maru

Last reported at 2015-Feb-10 03:33 UTC. Time now 2015-Mar-02 07:25 UTC.
Position N 34°37' E 134°58'.
Warning: this ship's position is 20 days out of date.

Length 105 m; draft 4.8 m.

Type: Tanker. MMSI: 431101016.

Date/timePositionNaut miles runAvg speedWind from/ knotsBaromVisibWave heightAir tempDewpointWater temp
2015-Feb-10 03:33N 34°37' E 134°58'1110.7
2015-Feb-10 02:33N 34°27' E 135°03'1514.7
2015-Feb-10 01:33N 34°13' E 134°59'1414.2
2015-Feb-10 00:33N 33°59' E 134°60'1 0.0
2015-Feb-08 01:30N 33°60' E 134°58'1313.5
2015-Feb-08 00:33N 34°12' E 134°58'1312.5
2015-Feb-07 23:33N 34°25' E 135°01'1211.7
2015-Feb-07 22:33N 34°36' E 135°02'1413.6
2015-Feb-07 21:33N 34°32' E 134°46'  
2015-Feb-04 08:20N 34°35' E 134°53'911.9
2015-Feb-04 07:33N 34°36' E 135°04'1413.6
2015-Feb-04 06:33N 34°34' E 135°20'3 0.4
2015-Feb-03 22:33N 34°33' E 135°24'4 4.2
2015-Feb-03 21:33N 34°32' E 135°19'0 0.0
2015-Feb-03 20:33N 34°32' E 135°19'0 0.0
2015-Feb-03 19:27N 34°32' E 135°19'0 0.0
2015-Feb-03 18:33N 34°32' E 135°19'0 0.0
2015-Feb-03 17:33N 34°32' E 135°19'0 0.0
2015-Feb-03 16:33N 34°32' E 135°19'0 0.0
2015-Feb-03 15:33N 34°32' E 135°19'0 0.0
2015-Feb-03 14:33N 34°32' E 135°19'0 0.0
2015-Feb-03 13:33N 34°32' E 135°19'0 0.0
2015-Feb-03 12:33N 34°32' E 135°19'0 0.0
2015-Feb-03 11:33N 34°32' E 135°19'0 0.0
2015-Feb-03 10:27N 34°32' E 135°19'0 0.0
2015-Feb-03 09:21N 34°32' E 135°19'0 0.0
2015-Feb-03 08:33N 34°32' E 135°19'0 0.0
2015-Feb-03 07:33N 34°32' E 135°19'0 0.1
2015-Feb-03 06:27N 34°32' E 135°19'0 0.0
2015-Feb-03 05:33N 34°32' E 135°19'0 0.0
2015-Feb-03 04:27N 34°32' E 135°19'0 0.0
2015-Feb-03 03:33N 34°32' E 135°19'0 0.0
2015-Feb-03 02:33N 34°32' E 135°19'0 0.0
2015-Feb-03 01:27N 34°32' E 135°19'0 0.0
2015-Feb-03 00:33N 34°32' E 135°19'25 0.8
2015-Feb-01 16:24N 34°34' E 134°48'1011.8
2015-Feb-01 15:32N 34°38' E 134°60'9 9.7
2015-Feb-01 14:33N 34°29' E 135°03'1313.1
2015-Feb-01 13:33N 34°16' E 134°60'1212.4
2015-Feb-01 12:33N 34°09' E 135°12'1 0.1
2015-Feb-01 02:33N 34°09' E 135°10'1 1.3
2015-Feb-01 01:31N 34°10' E 135°09'0 0.0
2015-Feb-01 00:31N 34°10' E 135°09'0 0.0
2015-Jan-31 23:31N 34°10' E 135°09'0 0.0
2015-Jan-31 22:31N 34°10' E 135°09'0 0.0
2015-Jan-31 21:31N 34°10' E 135°09'0 0.0
2015-Jan-31 20:31N 34°10' E 135°09'0 0.0
2015-Jan-31 19:28N 34°10' E 135°09'0 0.0
2015-Jan-31 18:31N 34°10' E 135°09'0 0.0
2015-Jan-31 17:31N 34°10' E 135°09'0 0.1
2015-Jan-31 16:31N 34°10' E 135°09'5 5.7
2015-Jan-31 15:34N 34°12' E 135°03'1413.6
2015-Jan-31 14:33N 34°26' E 135°01'1111.0
2015-Jan-31 13:33N 34°36' E 134°57'  

Dump ship's entire track history